sensor_id;sensor_type;location;lat;lon;timestamp;pressure;altitude;pressure_sealevel;temperature;humidity
40982;BME280;26708;50.304;19.028;2023-02-01T00:01:36;97582.13;;;2.35;69.12
40982;BME280;26708;50.304;19.028;2023-02-01T00:03:44;97611.56;;;2.47;69.17
40982;BME280;26708;50.304;19.028;2023-02-01T00:05:55;97539.75;;;2.16;69.13
40982;BME280;26708;50.304;19.028;2023-02-01T00:08:04;97706.22;;;3.08;69.22
40982;BME280;26708;50.304;19.028;2023-02-01T00:10:10;97675.91;;;2.96;69.22
40982;BME280;26708;50.304;19.028;2023-02-01T00:12:15;97698.50;;;3.09;69.16
40982;BME280;26708;50.304;19.028;2023-02-01T00:14:20;97629.91;;;2.65;69.01
40982;BME280;26708;50.304;19.028;2023-02-01T00:16:27;97597.97;;;2.59;68.97
40982;BME280;26708;50.304;19.028;2023-02-01T00:18:33;97742.66;;;3.27;69.09
40982;BME280;26708;50.304;19.028;2023-02-01T00:20:38;97735.78;;;3.28;69.16
40982;BME280;26708;50.304;19.028;2023-02-01T00:22:49;97720.25;;;3.28;69.13
40982;BME280;26708;50.304;19.028;2023-02-01T00:24:56;97585.03;;;2.56;69.18
40982;BME280;26708;50.304;19.028;2023-02-01T00:27:01;97691.78;;;3.23;69.14
40982;BME280;26708;50.304;19.028;2023-02-01T00:29:09;97728.91;;;3.31;69.05
40982;BME280;26708;50.304;19.028;2023-02-01T00:31:16;97696.91;;;3.22;69.16
40982;BME280;26708;50.304;19.028;2023-02-01T00:33:21;97657.91;;;2.99;69.09
40982;BME280;26708;50.304;19.028;2023-02-01T00:35:27;97666.47;;;2.97;68.84
40982;BME280;26708;50.304;19.028;2023-02-01T00:37:32;97558.94;;;2.38;68.73
40982;BME280;26708;50.304;19.028;2023-02-01T00:39:38;97676.16;;;3.14;68.64
40982;BME280;26708;50.304;19.028;2023-02-01T00:41:46;97566.06;;;2.52;68.56
40982;BME280;26708;50.304;19.028;2023-02-01T00:43:52;97534.03;;;2.41;68.51
40982;BME280;26708;50.304;19.028;2023-02-01T00:48:28;97557.41;;;2.50;68.14
40982;BME280;26708;50.304;19.028;2023-02-01T00:50:35;97610.91;;;2.62;67.91
40982;BME280;26708;50.304;19.028;2023-02-01T00:52:41;97468.72;;;1.78;67.91
40982;BME280;26708;50.304;19.028;2023-02-01T00:54:46;97670.78;;;2.98;67.82
40982;BME280;26708;50.304;19.028;2023-02-01T00:56:55;97604.69;;;2.48;67.64
40982;BME280;26708;50.304;19.028;2023-02-01T00:59:01;97731.00;;;2.92;67.97
40982;BME280;26708;50.304;19.028;2023-02-01T01:01:08;97502.09;;;1.66;67.82
40982;BME280;26708;50.304;19.028;2023-02-01T01:03:15;97709.38;;;2.84;68.07
40982;BME280;26708;50.304;19.028;2023-02-01T01:05:24;97764.94;;;3.19;68.25
40982;BME280;26708;50.304;19.028;2023-02-01T01:07:28;97776.09;;;3.17;68.26
40982;BME280;26708;50.304;19.028;2023-02-01T01:09:34;97672.59;;;2.44;68.23
40982;BME280;26708;50.304;19.028;2023-02-01T01:11:42;97729.41;;;3.03;68.15
40982;BME280;26708;50.304;19.028;2023-02-01T01:13:51;97672.03;;;2.61;68.12
40982;BME280;26708;50.304;19.028;2023-02-01T01:16:06;97735.44;;;3.02;67.81
40982;BME280;26708;50.304;19.028;2023-02-01T01:18:14;97636.22;;;2.27;67.60
40982;BME280;26708;50.304;19.028;2023-02-01T01:20:19;97722.28;;;2.84;67.56
40982;BME280;26708;50.304;19.028;2023-02-01T01:22:24;97623.25;;;2.23;67.36
40982;BME280;26708;50.304;19.028;2023-02-01T01:24:30;97711.75;;;2.72;67.50
40982;BME280;26708;50.304;19.028;2023-02-01T01:26:35;97590.13;;;1.93;67.84
40982;BME280;26708;50.304;19.028;2023-02-01T01:28:41;97624.91;;;2.19;67.90
40982;BME280;26708;50.304;19.028;2023-02-01T01:30:52;97570.00;;;1.68;67.85
40982;BME280;26708;50.304;19.028;2023-02-01T01:32:57;97751.47;;;2.79;67.78
40982;BME280;26708;50.304;19.028;2023-02-01T01:35:02;97757.41;;;2.73;67.43
40982;BME280;26708;50.304;19.028;2023-02-01T01:37:08;97753.06;;;2.69;67.63
40982;BME280;26708;50.304;19.028;2023-02-01T01:39:13;97798.97;;;2.88;67.62
40982;BME280;26708;50.304;19.028;2023-02-01T01:41:20;97515.91;;;1.18;67.61
40982;BME280;26708;50.304;19.028;2023-02-01T01:43:47;97579.00;;;1.41;68.02
40982;BME280;26708;50.304;19.028;2023-02-01T01:45:57;97800.56;;;2.79;68.56
40982;BME280;26708;50.304;19.028;2023-02-01T01:48:07;97578.25;;;1.48;68.41
40982;BME280;26708;50.304;19.028;2023-02-01T01:50:25;97546.38;;;1.43;68.52
40982;BME280;26708;50.304;19.028;2023-02-01T01:52:38;97605.13;;;1.63;68.35
40982;BME280;26708;50.304;19.028;2023-02-01T01:54:48;97539.34;;;1.33;68.40
40982;BME280;26708;50.304;19.028;2023-02-01T01:57:04;97708.41;;;2.21;68.83
40982;BME280;26708;50.304;19.028;2023-02-01T01:59:13;97695.63;;;2.30;68.64
40982;BME280;26708;50.304;19.028;2023-02-01T02:01:23;97797.19;;;2.86;68.79
40982;BME280;26708;50.304;19.028;2023-02-01T02:03:33;97759.72;;;2.55;68.75
40982;BME280;26708;50.304;19.028;2023-02-01T02:05:42;97706.66;;;2.20;68.67
40982;BME280;26708;50.304;19.028;2023-02-01T02:07:53;97784.81;;;2.64;68.82
40982;BME280;26708;50.304;19.028;2023-02-01T02:10:04;97757.94;;;2.51;68.85
40982;BME280;26708;50.304;19.028;2023-02-01T02:12:12;97638.00;;;1.76;68.59
40982;BME280;26708;50.304;19.028;2023-02-01T02:14:21;97748.44;;;2.50;68.84
40982;BME280;26708;50.304;19.028;2023-02-01T02:16:52;97766.72;;;2.62;68.55
40982;BME280;26708;50.304;19.028;2023-02-01T02:22:30;97714.41;;;2.22;68.95
40982;BME280;26708;50.304;19.028;2023-02-01T02:25:15;97718.00;;;2.31;68.95
40982;BME280;26708;50.304;19.028;2023-02-01T02:27:59;97720.47;;;2.25;68.99
40982;BME280;26708;50.304;19.028;2023-02-01T02:30:40;97639.94;;;1.91;68.92
40982;BME280;26708;50.304;19.028;2023-02-01T02:36:31;97576.63;;;1.54;68.95
40982;BME280;26708;50.304;19.028;2023-02-01T02:38:54;97777.16;;;2.68;68.96
40982;BME280;26708;50.304;19.028;2023-02-01T02:41:15;97809.38;;;2.94;69.08
40982;BME280;26708;50.304;19.028;2023-02-01T02:43:46;97808.38;;;2.83;68.86
40982;BME280;26708;50.304;19.028;2023-02-01T02:46:20;97757.16;;;2.58;68.87
40982;BME280;26708;50.304;19.028;2023-02-01T02:48:47;97776.31;;;2.72;68.87
40982;BME280;26708;50.304;19.028;2023-02-01T02:51:03;97792.78;;;2.77;69.03
40982;BME280;26708;50.304;19.028;2023-02-01T02:53:34;97730.28;;;2.46;68.91
40982;BME280;26708;50.304;19.028;2023-02-01T02:55:57;97698.78;;;2.13;68.79
40982;BME280;26708;50.304;19.028;2023-02-01T02:58:16;97792.88;;;2.85;68.91
40982;BME280;26708;50.304;19.028;2023-02-01T03:00:35;97828.56;;;3.10;68.66
40982;BME280;26708;50.304;19.028;2023-02-01T03:05:53;97799.19;;;3.02;68.18
40982;BME280;26708;50.304;19.028;2023-02-01T03:08:05;97824.25;;;3.10;68.27
40982;BME280;26708;50.304;19.028;2023-02-01T03:10:27;97799.03;;;2.93;68.15
40982;BME280;26708;50.304;19.028;2023-02-01T03:12:43;97813.69;;;2.95;68.03
40982;BME280;26708;50.304;19.028;2023-02-01T03:15:07;97736.63;;;2.64;68.08
40982;BME280;26708;50.304;19.028;2023-02-01T03:17:26;97747.91;;;2.71;68.16
40982;BME280;26708;50.304;19.028;2023-02-01T03:19:42;97861.44;;;3.20;68.19
40982;BME280;26708;50.304;19.028;2023-02-01T03:21:56;97787.91;;;2.97;68.06
40982;BME280;26708;50.304;19.028;2023-02-01T03:24:11;97628.16;;;2.05;68.02
40982;BME280;26708;50.304;19.028;2023-02-01T03:26:27;97679.25;;;2.28;67.67
40982;BME280;26708;50.304;19.028;2023-02-01T03:28:40;97751.28;;;2.67;67.66
40982;BME280;26708;50.304;19.028;2023-02-01T03:30:51;97782.78;;;3.01;67.63
40982;BME280;26708;50.304;19.028;2023-02-01T03:33:00;97838.31;;;3.29;67.68
40982;BME280;26708;50.304;19.028;2023-02-01T03:35:17;97818.75;;;2.86;67.55
40982;BME280;26708;50.304;19.028;2023-02-01T03:37:32;97717.50;;;2.52;67.88
40982;BME280;26708;50.304;19.028;2023-02-01T03:39:44;97668.94;;;2.30;67.75
40982;BME280;26708;50.304;19.028;2023-02-01T03:42:01;97674.91;;;2.27;68.13
40982;BME280;26708;50.304;19.028;2023-02-01T03:44:22;97581.97;;;1.65;68.32
40982;BME280;26708;50.304;19.028;2023-02-01T03:46:34;97648.72;;;2.00;68.15
40982;BME280;26708;50.304;19.028;2023-02-01T03:48:51;97659.00;;;1.97;68.37
40982;BME280;26708;50.304;19.028;2023-02-01T03:51:04;97676.94;;;1.91;68.68
40982;BME280;26708;50.304;19.028;2023-02-01T03:53:19;97729.25;;;2.35;68.76
40982;BME280;26708;50.304;19.028;2023-02-01T03:55:30;97724.78;;;2.25;68.87
40982;BME280;26708;50.304;19.028;2023-02-01T03:57:44;97821.31;;;2.86;69.19
40982;BME280;26708;50.304;19.028;2023-02-01T04:00:05;97655.50;;;1.94;69.06
40982;BME280;26708;50.304;19.028;2023-02-01T04:02:17;97775.91;;;2.48;69.22
40982;BME280;26708;50.304;19.028;2023-02-01T04:04:22;97763.97;;;2.52;69.24
40982;BME280;26708;50.304;19.028;2023-02-01T04:06:31;97765.69;;;2.53;69.22
40982;BME280;26708;50.304;19.028;2023-02-01T04:08:40;97605.88;;;1.56;69.27
40982;BME280;26708;50.304;19.028;2023-02-01T04:10:45;97731.78;;;2.33;69.34
40982;BME280;26708;50.304;19.028;2023-02-01T04:12:53;97780.34;;;2.52;69.48
40982;BME280;26708;50.304;19.028;2023-02-01T04:14:59;97828.88;;;2.74;69.81
40982;BME280;26708;50.304;19.028;2023-02-01T04:17:06;97696.81;;;1.97;69.68
40982;BME280;26708;50.304;19.028;2023-02-01T04:19:11;97774.13;;;2.43;69.88
40982;BME280;26708;50.304;19.028;2023-02-01T04:21:19;97623.97;;;1.59;69.88
40982;BME280;26708;50.304;19.028;2023-02-01T04:23:24;97643.88;;;1.66;69.65
40982;BME280;26708;50.304;19.028;2023-02-01T04:25:29;97769.25;;;2.59;69.60
40982;BME280;26708;50.304;19.028;2023-02-01T04:27:37;97796.06;;;2.67;69.39
40982;BME280;26708;50.304;19.028;2023-02-01T04:29:44;97803.81;;;2.69;69.30
40982;BME280;26708;50.304;19.028;2023-02-01T04:31:50;97788.28;;;2.66;69.15
40982;BME280;26708;50.304;19.028;2023-02-01T04:33:56;97645.84;;;1.82;68.98
40982;BME280;26708;50.304;19.028;2023-02-01T04:36:01;97618.09;;;1.68;69.16
40982;BME280;26708;50.304;19.028;2023-02-01T04:38:06;97825.78;;;2.96;69.02
40982;BME280;26708;50.304;19.028;2023-02-01T04:40:14;97799.78;;;2.84;68.71
40982;BME280;26708;50.304;19.028;2023-02-01T04:42:19;97852.53;;;3.00;68.73
40982;BME280;26708;50.304;19.028;2023-02-01T04:45:02;97561.72;;;1.35;68.40
40982;BME280;26708;50.304;19.028;2023-02-01T04:53:49;97684.25;;;2.19;68.25
40982;BME280;26708;50.304;19.028;2023-02-01T04:56:08;97750.63;;;2.80;68.10
40982;BME280;26708;50.304;19.028;2023-02-01T04:58:33;97821.88;;;3.22;67.91
40982;BME280;26708;50.304;19.028;2023-02-01T05:03:42;97653.53;;;2.33;67.56
40982;BME280;26708;50.304;19.028;2023-02-01T05:06:27;97591.88;;;1.94;67.32
40982;BME280;26708;50.304;19.028;2023-02-01T05:09:21;97817.72;;;3.36;66.95
40982;BME280;26708;50.304;19.028;2023-02-01T05:11:38;97649.28;;;2.38;66.97
40982;BME280;26708;50.304;19.028;2023-02-01T05:14:23;97671.59;;;2.34;67.00
40982;BME280;26708;50.304;19.028;2023-02-01T05:21:59;97823.03;;;3.47;66.60
40982;BME280;26708;50.304;19.028;2023-02-01T05:24:36;97540.84;;;1.74;66.32
40982;BME280;26708;50.304;19.028;2023-02-01T05:29:34;97766.53;;;3.08;66.47
40982;BME280;26708;50.304;19.028;2023-02-01T05:43:52;97535.50;;;1.62;65.95
40982;BME280;26708;50.304;19.028;2023-02-01T05:46:07;97469.03;;;1.41;66.01
40982;BME280;26708;50.304;19.028;2023-02-01T05:51:33;97714.38;;;2.74;65.99
40982;BME280;26708;50.304;19.028;2023-02-01T05:54:34;97802.28;;;3.39;65.77
40982;BME280;26708;50.304;19.028;2023-02-01T12:12:18;97511.00;;;5.10;59.56
40982;BME280;26708;50.304;19.028;2023-02-01T13:44:19;97340.53;;;3.80;62.34
40982;BME280;26708;50.304;19.028;2023-02-01T16:34:15;97504.31;;;3.69;67.37
40982;BME280;26708;50.304;19.028;2023-02-01T17:02:53;97691.41;;;4.73;66.24
40982;BME280;26708;50.304;19.028;2023-02-01T17:05:34;97626.34;;;4.27;66.21
40982;BME280;26708;50.304;19.028;2023-02-01T17:44:45;97535.44;;;3.82;64.63
40982;BME280;26708;50.304;19.028;2023-02-01T17:46:52;97628.91;;;4.27;64.53
40982;BME280;26708;50.304;19.028;2023-02-01T17:49:06;97572.59;;;3.92;64.71
40982;BME280;26708;50.304;19.028;2023-02-01T17:56:50;97548.16;;;3.54;65.02
40982;BME280;26708;50.304;19.028;2023-02-01T17:59:12;97433.88;;;2.89;65.39
40982;BME280;26708;50.304;19.028;2023-02-01T18:04:50;97629.63;;;4.03;65.51
40982;BME280;26708;50.304;19.028;2023-02-01T18:08:12;97515.09;;;3.18;65.60
40982;BME280;26708;50.304;19.028;2023-02-01T18:10:36;97713.63;;;4.40;65.73
40982;BME280;26708;50.304;19.028;2023-02-01T18:13:06;97413.84;;;2.61;65.72
40982;BME280;26708;50.304;19.028;2023-02-01T18:59:26;97654.91;;;4.39;65.52
40982;BME280;26708;50.304;19.028;2023-02-01T19:10:35;97408.84;;;2.79;66.12
40982;BME280;26708;50.304;19.028;2023-02-01T19:13:11;97408.06;;;2.91;65.99
40982;BME280;26708;50.304;19.028;2023-02-01T19:18:28;97456.53;;;3.19;65.99
40982;BME280;26708;50.304;19.028;2023-02-01T19:27:36;97397.63;;;2.77;65.77
40982;BME280;26708;50.304;19.028;2023-02-01T19:35:05;97535.22;;;3.51;66.20
40982;BME280;26708;50.304;19.028;2023-02-01T19:37:16;97528.41;;;3.60;66.41
40982;BME280;26708;50.304;19.028;2023-02-01T19:39:21;97516.16;;;3.40;66.56
40982;BME280;26708;50.304;19.028;2023-02-01T19:41:26;97468.56;;;3.15;66.53
40982;BME280;26708;50.304;19.028;2023-02-01T19:49:03;97348.03;;;2.23;67.17
40982;BME280;26708;50.304;19.028;2023-02-01T19:51:15;97297.94;;;2.00;67.09
40982;BME280;26708;50.304;19.028;2023-02-01T19:53:45;97424.94;;;2.54;67.55
40982;BME280;26708;50.304;19.028;2023-02-01T19:56:00;97258.97;;;1.72;67.62
40982;BME280;26708;50.304;19.028;2023-02-01T19:58:10;97502.91;;;3.05;67.88
40982;BME280;26708;50.304;19.028;2023-02-01T20:00:17;97392.25;;;2.55;67.94
40982;BME280;26708;50.304;19.028;2023-02-01T20:08:27;97260.81;;;1.83;68.16
40982;BME280;26708;50.304;19.028;2023-02-01T20:14:26;97562.09;;;3.72;68.25
40982;BME280;26708;50.304;19.028;2023-02-01T20:16:39;97511.97;;;3.52;68.14
40982;BME280;26708;50.304;19.028;2023-02-01T20:36:38;97284.31;;;2.13;68.60
40982;BME280;26708;50.304;19.028;2023-02-01T20:38:45;97320.69;;;2.43;68.78
40982;BME280;26708;50.304;19.028;2023-02-01T20:40:51;97492.09;;;3.48;68.68
40982;BME280;26708;50.304;19.028;2023-02-01T20:42:58;97383.06;;;2.85;68.72
40982;BME280;26708;50.304;19.028;2023-02-01T20:45:07;97471.34;;;3.39;68.71
40982;BME280;26708;50.304;19.028;2023-02-01T20:50:15;97459.28;;;3.41;68.54
40982;BME280;26708;50.304;19.028;2023-02-01T20:54:08;97230.91;;;2.02;68.46
40982;BME280;26708;50.304;19.028;2023-02-01T21:05:48;97210.19;;;1.94;67.96
40982;BME280;26708;50.304;19.028;2023-02-01T21:14:03;97328.75;;;2.76;68.17
40982;BME280;26708;50.304;19.028;2023-02-01T21:16:23;97277.69;;;2.41;68.32
40982;BME280;26708;50.304;19.028;2023-02-01T21:18:29;97494.88;;;3.75;68.48
40982;BME280;26708;50.304;19.028;2023-02-01T21:20:35;97219.72;;;2.04;68.28
40982;BME280;26708;50.304;19.028;2023-02-01T21:23:01;97340.03;;;2.87;68.15
40982;BME280;26708;50.304;19.028;2023-02-01T21:25:15;97234.53;;;2.26;68.11
40982;BME280;26708;50.304;19.028;2023-02-01T21:27:32;97310.50;;;2.55;68.19
40982;BME280;26708;50.304;19.028;2023-02-01T21:29:51;97333.16;;;2.91;68.44
40982;BME280;26708;50.304;19.028;2023-02-01T21:32:00;97319.97;;;2.56;68.12
40982;BME280;26708;50.304;19.028;2023-02-01T21:34:09;97321.03;;;2.81;68.16
40982;BME280;26708;50.304;19.028;2023-02-01T21:36:19;97278.47;;;2.35;68.24
40982;BME280;26708;50.304;19.028;2023-02-01T21:38:28;97328.69;;;2.70;68.55
40982;BME280;26708;50.304;19.028;2023-02-01T21:40:37;97250.84;;;2.21;68.52
40982;BME280;26708;50.304;19.028;2023-02-01T21:42:43;97318.25;;;2.52;68.48
40982;BME280;26708;50.304;19.028;2023-02-01T21:44:49;97208.44;;;1.92;68.58
40982;BME280;26708;50.304;19.028;2023-02-01T21:47:01;97212.91;;;2.09;68.52
40982;BME280;26708;50.304;19.028;2023-02-01T21:49:08;97321.91;;;2.80;68.53
40982;BME280;26708;50.304;19.028;2023-02-01T21:51:14;97287.22;;;2.49;68.55
40982;BME280;26708;50.304;19.028;2023-02-01T21:53:28;97280.28;;;2.47;68.86
40982;BME280;26708;50.304;19.028;2023-02-01T21:55:34;97402.16;;;3.04;69.01
40982;BME280;26708;50.304;19.028;2023-02-01T21:57:43;97328.66;;;2.66;69.07
40982;BME280;26708;50.304;19.028;2023-02-01T21:59:56;97300.88;;;2.36;69.19
40982;BME280;26708;50.304;19.028;2023-02-01T22:02:11;97396.09;;;3.00;69.19
40982;BME280;26708;50.304;19.028;2023-02-01T22:07:29;97273.25;;;2.28;69.45
40982;BME280;26708;50.304;19.028;2023-02-01T22:09:36;97422.94;;;3.19;69.66
40982;BME280;26708;50.304;19.028;2023-02-01T22:11:41;97471.38;;;3.47;69.59
40982;BME280;26708;50.304;19.028;2023-02-01T22:13:46;97272.50;;;2.39;69.39
40982;BME280;26708;50.304;19.028;2023-02-01T22:15:55;97313.84;;;2.48;69.52
40982;BME280;26708;50.304;19.028;2023-02-01T22:18:01;97233.63;;;2.23;69.41
40982;BME280;26708;50.304;19.028;2023-02-01T22:20:07;97370.16;;;2.88;69.59
40982;BME280;26708;50.304;19.028;2023-02-01T22:22:14;97206.81;;;2.01;69.48
40982;BME280;26708;50.304;19.028;2023-02-01T22:24:20;97416.91;;;3.20;69.51
40982;BME280;26708;50.304;19.028;2023-02-01T22:26:26;97365.13;;;3.08;69.36
40982;BME280;26708;50.304;19.028;2023-02-01T22:28:36;97293.41;;;2.69;69.46
40982;BME280;26708;50.304;19.028;2023-02-01T22:30:43;97371.13;;;3.05;69.25
40982;BME280;26708;50.304;19.028;2023-02-01T22:32:52;97390.22;;;3.24;69.10
40982;BME280;26708;50.304;19.028;2023-02-01T22:34:58;97435.25;;;3.56;68.90
40982;BME280;26708;50.304;19.028;2023-02-01T22:37:04;97386.84;;;3.35;69.24
40982;BME280;26708;50.304;19.028;2023-02-01T22:39:10;97296.84;;;2.68;68.85
40982;BME280;26708;50.304;19.028;2023-02-01T22:41:15;97267.59;;;2.72;68.67
40982;BME280;26708;50.304;19.028;2023-02-01T22:43:21;97214.91;;;2.46;68.35
40982;BME280;26708;50.304;19.028;2023-02-01T22:45:34;97412.88;;;3.62;67.98
40982;BME280;26708;50.304;19.028;2023-02-01T22:47:47;97322.84;;;2.92;67.92
40982;BME280;26708;50.304;19.028;2023-02-01T22:49:57;97392.97;;;3.49;67.76
40982;BME280;26708;50.304;19.028;2023-02-01T22:52:02;97317.78;;;3.10;67.60
40982;BME280;26708;50.304;19.028;2023-02-01T22:54:15;97225.25;;;2.48;67.23
40982;BME280;26708;50.304;19.028;2023-02-01T22:56:25;97191.50;;;2.22;67.20
40982;BME280;26708;50.304;19.028;2023-02-01T22:58:36;97466.38;;;3.69;67.37
40982;BME280;26708;50.304;19.028;2023-02-01T23:00:43;97169.00;;;2.05;67.37
40982;BME280;26708;50.304;19.028;2023-02-01T23:05:22;97271.63;;;2.37;67.56
40982;BME280;26708;50.304;19.028;2023-02-01T23:07:28;97323.56;;;2.73;67.79
40982;BME280;26708;50.304;19.028;2023-02-01T23:09:36;97331.28;;;2.67;67.85
40982;BME280;26708;50.304;19.028;2023-02-01T23:11:43;97292.44;;;2.58;67.96
40982;BME280;26708;50.304;19.028;2023-02-01T23:13:50;97301.13;;;2.66;67.83
40982;BME280;26708;50.304;19.028;2023-02-01T23:16:02;97494.03;;;3.76;67.81
40982;BME280;26708;50.304;19.028;2023-02-01T23:21:06;97200.81;;;2.02;67.56
40982;BME280;26708;50.304;19.028;2023-02-01T23:23:12;97358.91;;;2.80;67.51
40982;BME280;26708;50.304;19.028;2023-02-01T23:25:17;97367.50;;;2.76;67.27
40982;BME280;26708;50.304;19.028;2023-02-01T23:27:25;97499.09;;;3.64;67.43
40982;BME280;26708;50.304;19.028;2023-02-01T23:29:55;97209.25;;;1.83;67.30
40982;BME280;26708;50.304;19.028;2023-02-01T23:32:48;97337.28;;;2.68;67.25
40982;BME280;26708;50.304;19.028;2023-02-01T23:34:59;97239.47;;;1.99;67.28
40982;BME280;26708;50.304;19.028;2023-02-01T23:37:10;97406.38;;;2.97;67.26
40982;BME280;26708;50.304;19.028;2023-02-01T23:39:18;97347.56;;;2.63;67.33
40982;BME280;26708;50.304;19.028;2023-02-01T23:41:31;97178.06;;;1.58;67.04
40982;BME280;26708;50.304;19.028;2023-02-01T23:43:43;97485.19;;;3.47;67.34
40982;BME280;26708;50.304;19.028;2023-02-01T23:46:14;97446.94;;;3.04;67.54
